PDT,Max TemperatureF,Mean TemperatureF,Min TemperatureF,Max Dew PointF,MeanDew PointF,Min DewpointF,Max Humidity, Mean Humidity, Min Humidity, Max Sea Level PressureIn, Mean Sea Level PressureIn, Min Sea Level PressureIn, Max VisibilityMiles, Mean VisibilityMiles, Min VisibilityMiles, Max Wind SpeedMPH, Mean Wind SpeedMPH, Max Gust SpeedMPH,PrecipitationIn, CloudCover, Events, WindDirDegrees
2013-4-1,66,58,51,50,48,44,88,73,48,30.18,30.11,30.07,10,10,9,13,6,,0.00,6,,255
2013-4-2,75,62,50,51,49,46,89,70,37,30.10,30.06,29.97,10,9,7,16,4,,0.00,4,,259
2013-4-3,84,64,46,52,49,39,97,67,22,30.09,30.04,29.98,10,8,5,15,3,,0.00,2,,267
2013-4-4,79,64,51,54,52,45,97,78,32,30.11,30.07,29.99,10,5,2,15,4,21,0.00,6,,266
2013-4-5,72,62,51,54,52,50,94,78,48,30.09,30.06,30.00,10,8,4,15,5,,0.00,6,,257
2013-4-6,73,63,53,52,51,48,94,74,45,30.08,30.02,29.96,10,8,6,16,5,21,0.00,5,,259
2013-4-7,77,60,46,52,50,45,96,74,41,29.97,29.90,29.82,10,7,2,18,4,22,0.00,3,,275
2013-4-8,72,60,51,51,44,31,89,64,29,29.82,29.72,29.62,10,8,7,22,9,36,0.00,5,,258
2013-4-9,75,57,39,44,33,19,100,47,13,30.01,29.90,29.83,10,9,5,20,4,23,0.00,1,,203
2013-4-10,82,60,39,39,29,13,79,40,7,30.09,30.03,29.98,10,9,6,17,5,18,0.00,0,,288
2013-4-11,81,62,43,50,41,29,86,54,18,30.01,29.88,29.77,10,9,7,18,4,20,0.00,1,,286
2013-4-12,81,66,51,51,50,48,89,70,33,29.89,29.82,29.75,10,7,5,16,3,,0.00,3,,275
2013-4-13,70,60,51,53,51,48,94,81,54,29.92,29.89,29.83,10,5,2,17,4,20,0.00,6,,257
2013-4-14,64,58,52,50,48,46,86,74,56,29.89,29.86,29.82,10,9,7,14,6,18,0.00,8,,246
2013-4-15,66,58,53,49,48,46,82,72,52,29.90,29.86,29.82,10,10,9,18,7,22,0.00,7,,246
2013-4-16,66,54,43,46,39,35,89,58,33,29.98,29.92,29.87,10,10,7,20,9,28,0.00,4,,241
2013-4-17,73,56,39,36,25,9,79,37,9,30.14,30.06,29.98,10,10,8,15,4,,0.00,0,,260
2013-4-18,80,62,43,31,17,8,62,22,7,30.19,30.15,30.10,10,10,7,16,8,31,0.00,0,,75
2013-4-19,87,63,39,33,22,7,70,30,6,30.18,30.08,29.97,10,9,5,17,4,16,0.00,0,,283
2013-4-20,91,68,46,47,37,27,64,39,10,30.00,29.93,29.87,10,9,6,17,4,,0.00,0,,273
2013-4-21,88,67,48,50,43,35,86,49,18,30.01,29.97,29.92,10,9,5,16,4,,0.00,0,,265
2013-4-22,81,66,51,52,50,40,94,74,24,30.01,29.96,29.88,10,6,2,16,5,17,0.00,4,,269
2013-4-23,82,68,55,51,49,45,86,63,27,29.97,29.91,29.83,10,7,4,17,6,,0.00,4,,259
2013-4-24,68,60,53,54,50,46,94,73,59,29.98,29.93,29.91,10,7,3,20,7,24,0.00,7,,249
2013-4-25,72,63,54,49,47,45,77,61,42,30.11,30.04,29.97,10,9,8,12,7,,0.00,6,,264
2013-4-26,82,64,46,50,47,45,97,60,28,30.16,30.13,30.08,10,9,6,15,3,21,0.00,0,,265
2013-4-27,84,66,48,52,50,46,93,60,31,30.15,30.07,29.98,10,9,5,17,4,22,0.00,0,,257
2013-4-28,87,68,50,54,52,48,97,72,29,30.01,29.95,29.84,10,6,1,14,4,20,0.00,2,,265
2013-4-29,84,68,53,55,53,50,94,74,34,29.91,29.86,29.76,10,5,2,15,4,20,0.00,3,,267
2013-4-30,75,64,55,53,52,49,90,72,41,29.90,29.85,29.80,10,7,4,18,6,25,0.00,6,,250